createdAt,value
2019-03-21T00:01:58.732Z,9.30
2019-03-21T00:04:25.311Z,9.20
2019-03-21T00:06:51.998Z,9.30
2019-03-21T00:09:18.520Z,9.30
2019-03-21T00:12:01.953Z,9.30
2019-03-21T00:14:38.416Z,9.30
2019-03-21T00:17:07.684Z,9.30
2019-03-21T00:19:34.424Z,9.30
2019-03-21T00:22:02.650Z,9.30
2019-03-21T00:24:29.104Z,9.20
2019-03-21T00:26:55.730Z,9.20
2019-03-21T00:29:22.174Z,9.20
2019-03-21T00:31:49.626Z,9.20
2019-03-21T00:34:16.116Z,9.20
2019-03-21T00:36:43.122Z,9.20
2019-03-21T00:39:09.813Z,9.10
2019-03-21T00:41:36.460Z,9.10
2019-03-21T00:44:04.079Z,9.10
2019-03-21T00:46:31.149Z,9.10
2019-03-21T00:48:57.929Z,9.10
2019-03-21T00:51:24.333Z,9.10
2019-03-21T00:53:50.961Z,9.10
2019-03-21T00:56:17.999Z,9.10
2019-03-21T00:58:44.965Z,9.00
2019-03-21T01:01:12.339Z,9.00
2019-03-21T01:03:39.296Z,9.10
2019-03-21T01:06:06.034Z,9.10
2019-03-21T01:08:32.608Z,9.10
2019-03-21T01:11:19.332Z,9.00
2019-03-21T01:13:46.795Z,9.00
2019-03-21T01:16:13.344Z,9.00
2019-03-21T01:18:43.214Z,9.00
2019-03-21T01:21:10.328Z,9.00
2019-03-21T01:23:36.798Z,9.00
2019-03-21T01:26:09.986Z,8.90
2019-03-21T01:28:37.275Z,9.00
2019-03-21T01:31:03.908Z,8.90
2019-03-21T01:33:30.468Z,8.90
2019-03-21T01:35:57.403Z,8.90
2019-03-21T01:38:25.311Z,8.90
2019-03-21T01:40:58.901Z,8.90
2019-03-21T01:43:25.518Z,8.80
2019-03-21T01:45:52.151Z,8.80
2019-03-21T01:48:18.790Z,8.80
2019-03-21T01:50:45.334Z,8.80
2019-03-21T01:53:11.870Z,8.80
2019-03-21T01:55:38.469Z,8.70
2019-03-21T01:58:05.404Z,8.70
2019-03-21T02:00:40.581Z,8.70
2019-03-21T02:03:07.245Z,8.70
2019-03-21T02:05:34.262Z,8.70
2019-03-21T02:08:00.874Z,8.70
2019-03-21T02:10:28.994Z,8.60
2019-03-21T02:12:55.776Z,8.60
2019-03-21T02:15:22.179Z,8.60
2019-03-21T02:17:49.475Z,8.60
2019-03-21T02:20:18.297Z,8.60
2019-03-21T02:22:44.793Z,8.60
2019-03-21T02:25:15.087Z,8.60
2019-03-21T02:27:41.579Z,8.60
2019-03-21T02:30:20.780Z,8.60
2019-03-21T02:32:49.701Z,8.60
2019-03-21T02:35:16.111Z,8.60
2019-03-21T02:37:43.889Z,8.60
2019-03-21T02:40:21.470Z,8.60
2019-03-21T02:42:48.388Z,8.60
2019-03-21T02:45:15.501Z,8.60
2019-03-21T02:47:42.124Z,8.60
2019-03-21T02:50:18.174Z,8.60
2019-03-21T02:52:44.820Z,8.60
2019-03-21T02:55:13.412Z,8.60
2019-03-21T02:57:39.790Z,8.60
2019-03-21T03:00:15.384Z,8.60
2019-03-21T03:02:43.927Z,8.60
2019-03-21T03:05:16.654Z,8.60
2019-03-21T03:07:43.192Z,8.60
2019-03-21T03:10:14.992Z,8.60
2019-03-21T03:12:41.818Z,8.60
2019-03-21T03:15:22.732Z,8.60
2019-03-21T03:17:43.583Z,8.60
2019-03-21T03:20:15.717Z,8.60
2019-03-21T03:22:43.357Z,8.60
2019-03-21T03:25:13.281Z,8.60
2019-03-21T03:27:39.883Z,8.60
2019-03-21T03:30:14.841Z,8.60
2019-03-21T03:32:41.850Z,8.60
2019-03-21T03:35:10.972Z,8.60
2019-03-21T03:37:37.607Z,8.60
2019-03-21T03:40:11.271Z,8.60
2019-03-21T03:42:38.877Z,8.60
2019-03-21T03:45:09.135Z,8.60
2019-03-21T03:47:35.760Z,8.50
2019-03-21T03:50:03.505Z,8.60
2019-03-21T03:52:30.390Z,8.60
2019-03-21T03:54:57.010Z,8.50
2019-03-21T03:57:24.033Z,8.50
2019-03-21T03:59:51.936Z,8.50
2019-03-21T04:02:19.897Z,8.50
2019-03-21T04:04:47.709Z,8.50
2019-03-21T04:07:14.516Z,8.50
2019-03-21T04:09:41.248Z,8.50
2019-03-21T04:12:07.975Z,8.50
2019-03-21T04:14:36.478Z,8.50
2019-03-21T04:17:03.002Z,8.50
2019-03-21T04:19:29.842Z,8.50
2019-03-21T04:21:56.254Z,8.40
2019-03-21T04:24:22.932Z,8.40
2019-03-21T04:26:50.388Z,8.50
2019-03-21T04:29:16.946Z,8.40
2019-03-21T04:31:43.496Z,8.40
2019-03-21T04:34:10.578Z,8.40
2019-03-21T04:36:37.102Z,8.40
2019-03-21T04:39:07.257Z,8.40
2019-03-21T04:41:35.406Z,8.40
2019-03-21T04:44:02.825Z,8.40
2019-03-21T04:46:30.688Z,8.40
2019-03-21T04:48:57.099Z,8.40
2019-03-21T04:51:23.631Z,8.40
2019-03-21T04:53:50.553Z,8.40
2019-03-21T04:56:17.301Z,8.40
2019-03-21T04:58:43.735Z,8.40
2019-03-21T05:01:10.261Z,8.40
2019-03-21T05:03:38.889Z,8.40
2019-03-21T05:06:05.379Z,8.40
2019-03-21T05:08:31.850Z,8.40
2019-03-21T05:10:59.705Z,8.40
2019-03-21T05:13:26.626Z,8.40
2019-03-21T05:15:54.558Z,8.40
2019-03-21T05:18:28.125Z,8.40
2019-03-21T05:20:54.708Z,8.40
2019-03-21T05:23:21.208Z,8.40
2019-03-21T05:25:47.742Z,8.40
2019-03-21T05:28:14.902Z,8.40
2019-03-21T05:30:47.900Z,8.40
2019-03-21T05:33:14.524Z,8.40
2019-03-21T05:35:41.095Z,8.40
2019-03-21T05:38:09.070Z,8.40
2019-03-21T05:40:35.565Z,8.40
2019-03-21T05:43:24.148Z,8.40
2019-03-21T05:45:52.511Z,8.30
2019-03-21T05:48:18.860Z,8.40
2019-03-21T05:50:46.842Z,8.40
2019-03-21T05:53:13.337Z,8.40
2019-03-21T05:55:39.891Z,8.40
2019-03-21T05:58:06.439Z,8.40
2019-03-21T06:00:40.954Z,8.50
2019-03-21T06:03:11.542Z,8.50
2019-03-21T06:05:41.188Z,8.50
2019-03-21T06:08:17.188Z,8.50
2019-03-21T06:10:45.110Z,8.50
2019-03-21T06:13:11.512Z,8.60
2019-03-21T06:15:39.817Z,8.60
2019-03-21T06:18:16.049Z,8.60
2019-03-21T06:20:55.200Z,8.60
2019-03-21T06:23:33.529Z,8.60
2019-03-21T06:26:14.529Z,8.70
2019-03-21T06:28:41.084Z,8.70
2019-03-21T06:31:07.961Z,8.70
2019-03-21T06:33:34.505Z,8.70
2019-03-21T06:36:01.033Z,8.80
2019-03-21T06:38:28.035Z,8.90
2019-03-21T06:40:54.736Z,9.00
2019-03-21T06:43:21.159Z,8.90
2019-03-21T06:45:48.342Z,9.00
2019-03-21T06:48:14.959Z,9.10
2019-03-21T06:50:41.411Z,9.10
2019-03-21T06:53:07.835Z,9.20
2019-03-21T06:55:34.328Z,9.20
2019-03-21T06:58:01.271Z,9.20
2019-03-21T07:00:29.700Z,9.20
2019-03-21T07:02:56.178Z,9.30
2019-03-21T07:05:23.004Z,9.30
2019-03-21T07:07:49.514Z,9.40
2019-03-21T07:10:16.095Z,9.40
2019-03-21T07:12:42.792Z,9.50
2019-03-21T07:15:11.109Z,9.40
2019-03-21T07:17:37.705Z,9.40
2019-03-21T07:20:07.232Z,9.40
2019-03-21T07:22:33.907Z,9.40
2019-03-21T07:25:00.523Z,9.50
2019-03-21T07:27:28.083Z,9.60
2019-03-21T07:29:54.829Z,9.60
2019-03-21T07:32:21.369Z,9.70
2019-03-21T07:34:47.787Z,9.70
2019-03-21T07:37:14.480Z,9.70
2019-03-21T07:39:40.875Z,9.70
2019-03-21T07:42:07.815Z,9.90
2019-03-21T07:44:34.296Z,9.90
2019-03-21T07:47:11.702Z,9.90
2019-03-21T07:49:29.250Z,10.00
2019-03-21T07:51:55.761Z,10.10
2019-03-21T07:54:22.156Z,10.20
2019-03-21T07:56:48.564Z,10.30
2019-03-21T07:59:15.022Z,10.10
2019-03-21T08:01:43.154Z,10.20
2019-03-21T08:04:09.650Z,10.40
2019-03-21T08:06:36.311Z,10.50
2019-03-21T08:09:05.544Z,10.50
2019-03-21T08:11:32.005Z,10.60
2019-03-21T08:13:58.523Z,10.80
2019-03-21T08:16:24.980Z,10.60
2019-03-21T08:18:51.939Z,10.60
2019-03-21T08:21:18.487Z,10.30
2019-03-21T08:23:45.248Z,10.30
2019-03-21T08:26:11.925Z,10.70
2019-03-21T08:28:38.531Z,10.50
2019-03-21T08:31:10.727Z,10.60
2019-03-21T08:33:37.069Z,10.60
2019-03-21T08:36:03.699Z,10.80
2019-03-21T08:38:30.429Z,10.70
2019-03-21T08:40:57.006Z,10.70
2019-03-21T08:43:23.512Z,10.80
2019-03-21T08:45:51.438Z,11.20
2019-03-21T08:48:17.909Z,11.40
2019-03-21T08:50:44.708Z,11.40
2019-03-21T08:53:11.658Z,11.40
2019-03-21T08:55:38.086Z,11.50
2019-03-21T08:58:05.155Z,11.40
2019-03-21T09:00:34.452Z,11.20
2019-03-21T09:03:00.789Z,11.30
2019-03-21T09:05:27.257Z,11.40
2019-03-21T09:07:53.979Z,11.90
2019-03-21T09:10:20.402Z,12.20
2019-03-21T09:12:46.971Z,12.00
2019-03-21T09:15:14.088Z,11.60
2019-03-21T09:17:41.211Z,11.90
2019-03-21T09:20:08.567Z,11.70
2019-03-21T09:22:35.087Z,11.50
2019-03-21T09:25:04.650Z,11.60
2019-03-21T09:27:30.876Z,11.70
2019-03-21T09:29:58.729Z,11.90
2019-03-21T09:32:25.413Z,12.30
2019-03-21T09:34:52.065Z,12.50
2019-03-21T09:37:18.707Z,12.80
2019-03-21T09:39:46.590Z,12.50
2019-03-21T09:42:13.108Z,12.80
2019-03-21T09:44:39.682Z,12.80
2019-03-21T09:47:06.210Z,13.00
2019-03-21T09:49:34.745Z,13.30
2019-03-21T09:52:01.438Z,13.50
2019-03-21T09:54:27.910Z,13.70
2019-03-21T09:56:54.596Z,13.90
2019-03-21T09:59:21.147Z,14.10
2019-03-21T10:01:48.746Z,13.90
2019-03-21T10:04:16.689Z,13.10
2019-03-21T10:06:43.707Z,13.30
2019-03-21T10:09:10.121Z,13.50
2019-03-21T10:11:38.503Z,13.50
2019-03-21T10:14:06.843Z,13.80
2019-03-21T10:16:35.721Z,13.30
2019-03-21T10:19:02.435Z,13.20
2019-03-21T10:21:42.434Z,13.30
2019-03-21T10:23:57.467Z,14.00
2019-03-21T10:26:23.899Z,14.60
2019-03-21T10:28:51.614Z,15.00
2019-03-21T10:31:18.665Z,14.70
2019-03-21T10:33:46.318Z,14.40
2019-03-21T10:36:15.914Z,14.40
2019-03-21T10:38:43.319Z,14.10
2019-03-21T10:41:09.895Z,13.90
2019-03-21T10:43:36.763Z,14.10
2019-03-21T10:46:03.432Z,14.20
2019-03-21T10:48:30.112Z,14.30
2019-03-21T10:50:58.005Z,14.10
2019-03-21T10:53:24.519Z,13.90
2019-03-21T10:55:51.152Z,14.40
2019-03-21T10:58:17.793Z,14.60
2019-03-21T11:00:44.216Z,14.80
2019-03-21T11:03:10.884Z,14.80
2019-03-21T11:05:39.261Z,15.00
2019-03-21T11:08:06.362Z,15.20
2019-03-21T11:10:33.996Z,15.30
2019-03-21T11:13:01.948Z,15.70
2019-03-21T11:15:29.846Z,16.00
2019-03-21T11:17:56.622Z,16.40
2019-03-21T11:20:28.832Z,16.20
2019-03-21T11:22:55.901Z,16.50
2019-03-21T11:25:22.754Z,16.70
2019-03-21T11:27:49.275Z,16.10
2019-03-21T11:30:19.515Z,15.90
2019-03-21T11:32:46.077Z,16.10
2019-03-21T11:35:12.665Z,16.30
2019-03-21T11:37:39.097Z,16.60
2019-03-21T11:40:05.772Z,16.40
2019-03-21T11:42:32.585Z,16.10
2019-03-21T11:44:58.995Z,16.20
2019-03-21T11:47:26.700Z,16.10
2019-03-21T11:49:53.221Z,15.80
2019-03-21T11:52:20.224Z,15.80
2019-03-21T11:54:46.900Z,15.70
2019-03-21T11:57:13.451Z,15.70
2019-03-21T11:59:51.133Z,15.40
2019-03-21T12:02:09.433Z,15.10
2019-03-21T12:04:35.906Z,14.90
2019-03-21T12:07:02.535Z,14.80
2019-03-21T12:09:29.386Z,14.80
2019-03-21T12:11:56.755Z,14.60
2019-03-21T12:14:23.352Z,14.60
2019-03-21T12:16:50.038Z,14.70
2019-03-21T12:19:16.668Z,14.60
2019-03-21T12:21:43.186Z,14.60
2019-03-21T12:24:10.795Z,14.60
2019-03-21T12:26:37.303Z,14.70
2019-03-21T12:29:03.953Z,14.70
2019-03-21T12:31:30.817Z,14.60
2019-03-21T12:33:59.260Z,14.60
2019-03-21T12:36:25.963Z,14.50
2019-03-21T12:38:52.759Z,14.50
2019-03-21T12:41:19.309Z,14.50
2019-03-21T12:43:46.127Z,14.70
2019-03-21T12:46:13.347Z,14.70
2019-03-21T12:48:41.487Z,15.00
2019-03-21T12:51:08.571Z,15.20
2019-03-21T12:53:35.172Z,15.40
2019-03-21T12:56:01.790Z,15.30
2019-03-21T12:58:28.411Z,15.10
2019-03-21T13:00:56.012Z,15.00
2019-03-21T13:03:23.832Z,14.80
2019-03-21T13:05:50.262Z,14.70
2019-03-21T13:08:16.818Z,14.60
2019-03-21T13:10:43.342Z,14.70
2019-03-21T13:13:10.128Z,14.70
2019-03-21T13:15:36.667Z,14.40
2019-03-21T13:18:05.568Z,14.40
2019-03-21T13:20:32.145Z,14.30
2019-03-21T13:22:59.074Z,14.20
2019-03-21T13:25:25.545Z,14.20
2019-03-21T13:27:52.085Z,14.10
2019-03-21T13:30:19.719Z,13.90
2019-03-21T13:32:47.158Z,14.00
2019-03-21T13:35:14.579Z,14.00
2019-03-21T13:37:42.718Z,13.90
2019-03-21T13:40:09.546Z,13.90
2019-03-21T13:42:36.176Z,13.90
2019-03-21T13:45:05.414Z,13.90
2019-03-21T13:47:32.378Z,13.90
2019-03-21T13:49:58.920Z,14.00
2019-03-21T13:52:25.433Z,14.00
2019-03-21T13:54:52.172Z,14.00
2019-03-21T13:57:19.165Z,14.00
2019-03-21T13:59:45.812Z,14.00
2019-03-21T14:02:12.463Z,13.90
2019-03-21T14:04:39.453Z,13.90
2019-03-21T14:07:06.439Z,13.90
2019-03-21T14:09:33.366Z,13.90
2019-03-21T14:12:01.722Z,13.80
2019-03-21T14:14:28.221Z,13.80
2019-03-21T14:16:54.637Z,13.80
2019-03-21T14:19:21.345Z,13.80
2019-03-21T14:21:48.219Z,13.70
2019-03-21T14:24:14.762Z,13.70
2019-03-21T14:26:41.348Z,13.70
2019-03-21T14:29:12.903Z,13.70
2019-03-21T14:31:37.346Z,13.60
2019-03-21T14:34:04.380Z,13.70
2019-03-21T14:36:33.498Z,13.70
2019-03-21T14:39:00.094Z,13.70
2019-03-21T14:41:26.720Z,13.60
2019-03-21T14:43:55.007Z,13.60
2019-03-21T14:46:21.720Z,13.60
2019-03-21T14:48:48.274Z,13.50
2019-03-21T14:51:14.865Z,13.50
2019-03-21T14:53:42.519Z,13.40
2019-03-21T14:56:09.209Z,13.40
2019-03-21T14:58:35.785Z,13.40
2019-03-21T15:01:03.667Z,13.50
2019-03-21T15:03:30.137Z,13.50
2019-03-21T15:05:57.012Z,13.50
2019-03-21T15:08:25.651Z,13.50
2019-03-21T15:10:52.188Z,13.40
2019-03-21T15:13:18.575Z,13.40
2019-03-21T15:15:45.041Z,13.40
2019-03-21T15:18:12.187Z,13.30
2019-03-21T15:20:38.704Z,13.40
2019-03-21T15:23:05.373Z,13.30
2019-03-21T15:25:32.044Z,13.20
2019-03-21T15:27:59.270Z,13.20
2019-03-21T15:30:25.716Z,13.20
2019-03-21T15:32:52.809Z,13.20
2019-03-21T15:35:20.047Z,13.20
2019-03-21T15:37:46.790Z,13.20
2019-03-21T15:40:14.988Z,13.20
2019-03-21T15:42:41.667Z,13.20
2019-03-21T15:45:22.859Z,13.10
2019-03-21T15:47:46.026Z,13.10
2019-03-21T15:50:37.564Z,13.00
2019-03-21T15:53:05.413Z,13.00
2019-03-21T15:55:32.603Z,13.00
2019-03-21T15:58:00.501Z,12.90
2019-03-21T16:00:35.126Z,12.90
2019-03-21T16:03:03.709Z,12.80
2019-03-21T16:05:31.857Z,12.80
2019-03-21T16:07:58.538Z,12.80
2019-03-21T16:10:25.874Z,12.80
2019-03-21T16:12:52.346Z,12.80
2019-03-21T16:15:19.008Z,12.80
2019-03-21T16:17:47.128Z,12.70
2019-03-21T16:20:15.916Z,12.70
2019-03-21T16:22:45.540Z,12.60
2019-03-21T16:25:12.154Z,12.60
2019-03-21T16:27:40.734Z,12.50
2019-03-21T16:30:10.364Z,12.50
2019-03-21T16:32:37.019Z,12.50
2019-03-21T16:35:06.931Z,12.50
2019-03-21T16:37:34.504Z,12.50
2019-03-21T16:40:01.175Z,12.50
2019-03-21T16:42:29.809Z,12.50
2019-03-21T16:44:56.383Z,12.50
2019-03-21T16:47:23.105Z,12.40
2019-03-21T16:49:49.688Z,12.40
2019-03-21T16:52:16.230Z,12.40
2019-03-21T16:54:42.829Z,12.30
2019-03-21T16:57:09.772Z,12.30
2019-03-21T16:59:36.642Z,12.40
2019-03-21T17:02:03.593Z,12.40
2019-03-21T17:04:32.505Z,12.30
2019-03-21T17:06:59.213Z,12.30
2019-03-21T17:09:27.618Z,12.30
2019-03-21T17:11:55.411Z,12.30
2019-03-21T17:14:22.253Z,12.30
2019-03-21T17:16:49.330Z,12.20
2019-03-21T17:19:17.544Z,12.20
2019-03-21T17:21:44.256Z,12.20
2019-03-21T17:24:11.073Z,12.10
2019-03-21T17:26:38.549Z,12.10
2019-03-21T17:29:07.211Z,11.90
2019-03-21T17:31:33.791Z,12.10
2019-03-21T17:34:04.103Z,12.00
2019-03-21T17:36:30.972Z,12.00
2019-03-21T17:38:57.581Z,11.90
2019-03-21T17:41:24.247Z,11.90
2019-03-21T17:43:51.166Z,11.90
2019-03-21T17:46:19.117Z,11.90
2019-03-21T17:48:46.954Z,11.80
2019-03-21T17:51:15.298Z,11.80
2019-03-21T17:53:42.342Z,11.80
2019-03-21T17:56:09.160Z,11.70
2019-03-21T17:58:36.591Z,11.70
2019-03-21T18:01:04.188Z,11.70
2019-03-21T18:03:31.006Z,11.70
2019-03-21T18:05:57.733Z,11.60
2019-03-21T18:08:24.340Z,11.70
2019-03-21T18:10:51.951Z,11.70
2019-03-21T18:13:18.548Z,11.60
2019-03-21T18:15:45.279Z,11.60
2019-03-21T18:18:12.088Z,11.60
2019-03-21T18:20:40.480Z,11.50
2019-03-21T18:23:07.272Z,11.50
2019-03-21T18:25:35.131Z,11.40
2019-03-21T18:28:02.015Z,11.40
2019-03-21T18:30:48.627Z,11.40
2019-03-21T18:33:19.196Z,11.50
2019-03-21T18:35:44.390Z,11.30
2019-03-21T18:38:11.113Z,11.30
2019-03-21T18:40:37.895Z,11.30
2019-03-21T18:43:04.539Z,11.30
2019-03-21T18:45:32.472Z,11.20
2019-03-21T18:47:59.821Z,11.20
2019-03-21T18:50:26.776Z,11.20
2019-03-21T18:52:53.488Z,11.20
2019-03-21T18:55:20.143Z,11.20
2019-03-21T18:57:48.491Z,11.20
2019-03-21T19:00:17.787Z,11.20
2019-03-21T19:02:44.396Z,11.20
2019-03-21T19:05:11.234Z,11.20
2019-03-21T19:07:37.925Z,11.20
2019-03-21T19:10:07.309Z,11.20
2019-03-21T19:12:33.826Z,11.10
2019-03-21T19:15:01.859Z,11.10
2019-03-21T19:17:28.679Z,11.10
2019-03-21T19:19:55.058Z,11.10
2019-03-21T19:22:23.251Z,11.10
2019-03-21T19:24:50.146Z,11.00
2019-03-21T19:27:16.943Z,11.00
2019-03-21T19:29:44.786Z,11.00
2019-03-21T19:32:11.172Z,11.00
2019-03-21T19:34:37.661Z,11.00
2019-03-21T19:37:05.546Z,11.00
2019-03-21T19:39:32.282Z,11.00
2019-03-21T19:41:59.109Z,11.00
2019-03-21T19:44:25.853Z,11.00
2019-03-21T19:46:52.516Z,11.00
2019-03-21T19:49:19.159Z,11.00
2019-03-21T19:51:46.186Z,11.00
2019-03-21T19:54:12.868Z,11.00
2019-03-21T19:56:39.632Z,11.00
2019-03-21T19:59:06.663Z,11.00
2019-03-21T20:01:33.838Z,11.00
2019-03-21T20:04:00.587Z,11.00
2019-03-21T20:06:27.223Z,11.00
2019-03-21T20:08:56.751Z,11.00
2019-03-21T20:11:22.136Z,11.00
2019-03-21T20:13:48.649Z,11.00
2019-03-21T20:16:15.411Z,11.00
2019-03-21T20:18:43.312Z,11.00
2019-03-21T20:21:09.960Z,11.10
2019-03-21T20:23:36.827Z,11.00
2019-03-21T20:26:04.468Z,11.00
2019-03-21T20:28:31.153Z,11.00
2019-03-21T20:30:57.992Z,11.10
2019-03-21T20:33:24.638Z,11.10
2019-03-21T20:35:51.337Z,11.10
2019-03-21T20:38:17.876Z,11.10
2019-03-21T20:40:44.612Z,11.10
2019-03-21T20:43:11.299Z,11.10
2019-03-21T20:45:38.671Z,11.10
2019-03-21T20:48:05.861Z,11.10
2019-03-21T20:50:32.875Z,11.10
2019-03-21T20:52:59.405Z,11.10
2019-03-21T20:55:27.070Z,11.10
2019-03-21T20:57:53.607Z,11.10
2019-03-21T21:00:21.969Z,11.00
2019-03-21T21:02:49.537Z,11.00
2019-03-21T21:05:16.233Z,11.00
2019-03-21T21:07:42.743Z,11.00
2019-03-21T21:10:11.024Z,11.00
2019-03-21T21:12:37.986Z,11.00
2019-03-21T21:15:06.433Z,11.00
2019-03-21T21:18:01.440Z,11.00
2019-03-21T21:20:31.578Z,11.00
2019-03-21T21:22:59.389Z,11.00
2019-03-21T21:25:26.373Z,11.00
2019-03-21T21:27:53.211Z,11.00
2019-03-21T21:30:21.368Z,11.10
2019-03-21T21:32:50.581Z,11.10
2019-03-21T21:35:17.133Z,11.10
2019-03-21T21:37:43.737Z,11.10
2019-03-21T21:40:11.721Z,11.10
2019-03-21T21:42:38.361Z,11.10
2019-03-21T21:45:08.068Z,11.10
2019-03-21T21:47:36.613Z,11.10
2019-03-21T21:50:06.079Z,11.10
2019-03-21T21:52:41.577Z,11.10
2019-03-21T21:55:00.806Z,11.10
2019-03-21T21:57:27.498Z,11.10
2019-03-21T21:59:54.477Z,11.10
2019-03-21T22:02:21.452Z,11.10
2019-03-21T22:04:48.816Z,11.10
2019-03-21T22:07:15.366Z,11.10
2019-03-21T22:09:41.920Z,11.10
2019-03-21T22:12:09.466Z,11.10
2019-03-21T22:14:36.034Z,11.10
2019-03-21T22:17:02.754Z,11.20
2019-03-21T22:19:30.855Z,11.20
2019-03-21T22:21:57.549Z,11.20
2019-03-21T22:24:24.774Z,11.20
2019-03-21T22:26:52.384Z,11.30
2019-03-21T22:29:19.047Z,11.20
2019-03-21T22:31:45.533Z,11.20
2019-03-21T22:34:12.055Z,11.20
2019-03-21T22:36:48.986Z,11.20
2019-03-21T22:39:07.027Z,11.20
2019-03-21T22:41:33.572Z,11.20
2019-03-21T22:44:00.093Z,11.20
2019-03-21T22:46:26.897Z,11.20
2019-03-21T22:48:53.980Z,11.20
2019-03-21T22:51:20.542Z,11.10
2019-03-21T22:53:46.950Z,11.10
2019-03-21T22:56:13.521Z,11.10
2019-03-21T22:58:39.937Z,11.10
2019-03-21T23:01:07.030Z,11.10
2019-03-21T23:03:33.590Z,11.00
2019-03-21T23:06:01.642Z,11.00
2019-03-21T23:08:28.523Z,11.00
2019-03-21T23:10:55.051Z,11.00
2019-03-21T23:13:21.767Z,11.00
2019-03-21T23:15:48.481Z,10.90
2019-03-21T23:18:15.357Z,10.90
2019-03-21T23:20:41.913Z,10.90
2019-03-21T23:23:08.594Z,10.90
2019-03-21T23:25:36.203Z,10.90
2019-03-21T23:28:02.788Z,10.80
2019-03-21T23:30:29.360Z,10.90
2019-03-21T23:32:55.820Z,10.90
2019-03-21T23:35:22.611Z,10.90
2019-03-21T23:37:49.173Z,10.90
2019-03-21T23:40:16.044Z,10.80
2019-03-21T23:42:43.018Z,10.80
2019-03-21T23:45:11.196Z,10.80
2019-03-21T23:47:39.545Z,10.80
2019-03-21T23:50:08.339Z,10.80
2019-03-21T23:52:36.852Z,10.70
2019-03-21T23:55:08.779Z,10.80
2019-03-21T23:57:35.322Z,10.70
